sensor_id;sensor_type;location;lat;lon;timestamp;pressure;altitude;pressure_sealevel;temperature;humidity
77263;BME280;66373;52.334;4.806;2024-01-07T00:02:14;101833.91;;;16.08;59.04
77263;BME280;66373;52.334;4.806;2024-01-07T00:04:41;101826.09;;;16.05;58.76
77263;BME280;66373;52.334;4.806;2024-01-07T00:07:10;101833.91;;;16.08;59.15
77263;BME280;66373;52.334;4.806;2024-01-07T00:09:37;101838.22;;;16.07;59.05
77263;BME280;66373;52.334;4.806;2024-01-07T00:12:05;101839.94;;;16.05;59.01
77263;BME280;66373;52.334;4.806;2024-01-07T00:14:32;101842.53;;;16.07;59.11
77263;BME280;66373;52.334;4.806;2024-01-07T00:17:00;101839.06;;;16.05;59.02
77263;BME280;66373;52.334;4.806;2024-01-07T00:19:27;101844.28;;;16.05;58.87
77263;BME280;66373;52.334;4.806;2024-01-07T00:21:56;101844.28;;;16.05;58.82
77263;BME280;66373;52.334;4.806;2024-01-07T00:24:25;101842.53;;;16.04;58.91
77263;BME280;66373;52.334;4.806;2024-01-07T00:26:54;101843.41;;;16.03;58.91
77263;BME280;66373;52.334;4.806;2024-01-07T00:29:22;101842.53;;;16.04;58.70
77263;BME280;66373;52.334;4.806;2024-01-07T00:31:49;101856.38;;;16.03;58.62
77263;BME280;66373;52.334;4.806;2024-01-07T00:34:16;101851.19;;;16.03;58.62
77263;BME280;66373;52.334;4.806;2024-01-07T00:36:43;101852.91;;;16.02;58.80
77263;BME280;66373;52.334;4.806;2024-01-07T00:39:10;101849.44;;;16.03;58.67
77263;BME280;66373;52.334;4.806;2024-01-07T00:41:39;101858.97;;;16.03;58.68
77263;BME280;66373;52.334;4.806;2024-01-07T00:44:07;101863.28;;;16.04;58.70
77263;BME280;66373;52.334;4.806;2024-01-07T00:46:34;101860.69;;;16.02;58.59
77263;BME280;66373;52.334;4.806;2024-01-07T00:49:02;101858.09;;;16.04;58.47
77263;BME280;66373;52.334;4.806;2024-01-07T00:51:29;101868.47;;;16.02;58.54
77263;BME280;66373;52.334;4.806;2024-01-07T00:53:56;101868.47;;;16.02;58.36
77263;BME280;66373;52.334;4.806;2024-01-07T00:56:25;101865.91;;;16.04;58.42
77263;BME280;66373;52.334;4.806;2024-01-07T00:58:54;101871.94;;;16.03;58.32
77263;BME280;66373;52.334;4.806;2024-01-07T01:01:21;101871.94;;;16.03;58.44
77263;BME280;66373;52.334;4.806;2024-01-07T01:03:48;101866.75;;;16.03;58.41
77263;BME280;66373;52.334;4.806;2024-01-07T01:06:16;101868.47;;;16.04;58.45
77263;BME280;66373;52.334;4.806;2024-01-07T01:08:43;101869.34;;;16.03;58.27
77263;BME280;66373;52.334;4.806;2024-01-07T01:11:10;101876.28;;;16.04;58.37
77263;BME280;66373;52.334;4.806;2024-01-07T01:13:38;101875.41;;;16.05;58.45
77263;BME280;66373;52.334;4.806;2024-01-07T01:16:06;101870.22;;;16.05;58.35
77263;BME280;66373;52.334;4.806;2024-01-07T01:18:33;101879.75;;;16.06;58.35
77263;BME280;66373;52.334;4.806;2024-01-07T01:21:01;101873.69;;;16.07;58.25
77263;BME280;66373;52.334;4.806;2024-01-07T01:23:28;101878.00;;;16.06;58.21
77263;BME280;66373;52.334;4.806;2024-01-07T01:25:55;101884.94;;;16.07;58.32
77263;BME280;66373;52.334;4.806;2024-01-07T01:28:22;101878.88;;;16.08;58.30
77263;BME280;66373;52.334;4.806;2024-01-07T01:30:50;101882.34;;;16.09;58.28
77263;BME280;66373;52.334;4.806;2024-01-07T01:33:18;101884.09;;;16.10;58.19
77263;BME280;66373;52.334;4.806;2024-01-07T01:35:45;101879.75;;;16.10;58.23
77263;BME280;66373;52.334;4.806;2024-01-07T01:38:13;101884.97;;;16.10;58.21
77263;BME280;66373;52.334;4.806;2024-01-07T01:40:40;101888.41;;;16.11;58.28
77263;BME280;66373;52.334;4.806;2024-01-07T01:43:07;101894.44;;;16.11;58.04
77263;BME280;66373;52.334;4.806;2024-01-07T01:45:34;101899.66;;;16.10;58.07
77263;BME280;66373;52.334;4.806;2024-01-07T01:48:01;101905.69;;;16.12;58.19
77263;BME280;66373;52.334;4.806;2024-01-07T01:50:30;101909.19;;;16.11;58.13
77263;BME280;66373;52.334;4.806;2024-01-07T01:52:57;101904.84;;;16.10;58.04
77263;BME280;66373;52.334;4.806;2024-01-07T01:55:25;101910.91;;;16.10;58.08
77263;BME280;66373;52.334;4.806;2024-01-07T01:57:53;101915.22;;;16.10;58.13
77263;BME280;66373;52.334;4.806;2024-01-07T02:00:21;101912.63;;;16.10;58.10
77263;BME280;66373;52.334;4.806;2024-01-07T02:02:49;101920.44;;;16.10;58.05
77263;BME280;66373;52.334;4.806;2024-01-07T02:05:16;101916.97;;;16.09;57.94
77263;BME280;66373;52.334;4.806;2024-01-07T02:07:45;101923.03;;;16.10;57.93
77263;BME280;66373;52.334;4.806;2024-01-07T02:10:12;101923.00;;;16.08;57.86
77263;BME280;66373;52.334;4.806;2024-01-07T02:12:39;101923.88;;;16.09;57.83
77263;BME280;66373;52.334;4.806;2024-01-07T02:15:07;101930.81;;;16.10;57.88
77263;BME280;66373;52.334;4.806;2024-01-07T02:17:34;101921.28;;;16.09;58.01
77263;BME280;66373;52.334;4.806;2024-01-07T02:20:02;101929.06;;;16.09;57.75
77263;BME280;66373;52.334;4.806;2024-01-07T02:22:30;101932.53;;;16.09;57.75
77263;BME280;66373;52.334;4.806;2024-01-07T02:24:58;101935.13;;;16.09;57.72
77263;BME280;66373;52.334;4.806;2024-01-07T02:27:26;101932.53;;;16.08;57.83
77263;BME280;66373;52.334;4.806;2024-01-07T02:29:54;101937.72;;;16.11;57.92
77263;BME280;66373;52.334;4.806;2024-01-07T02:32:22;101937.72;;;16.11;57.77
77263;BME280;66373;52.334;4.806;2024-01-07T02:34:50;101943.75;;;16.11;57.76
77263;BME280;66373;52.334;4.806;2024-01-07T02:37:17;101937.72;;;16.11;57.66
77263;BME280;66373;52.334;4.806;2024-01-07T02:39:44;101936.84;;;16.13;57.66
77263;BME280;66373;52.334;4.806;2024-01-07T02:42:13;101942.91;;;16.14;57.68
77263;BME280;66373;52.334;4.806;2024-01-07T02:44:40;101943.78;;;16.13;57.66
77263;BME280;66373;52.334;4.806;2024-01-07T02:47:08;101939.44;;;16.12;57.71
77263;BME280;66373;52.334;4.806;2024-01-07T02:49:35;101948.09;;;16.14;57.81
77263;BME280;66373;52.334;4.806;2024-01-07T02:52:03;101948.09;;;16.14;57.64
77263;BME280;66373;52.334;4.806;2024-01-07T02:54:30;101954.16;;;16.14;57.71
77263;BME280;66373;52.334;4.806;2024-01-07T02:56:57;101948.09;;;16.14;57.66
77263;BME280;66373;52.334;4.806;2024-01-07T02:59:26;101967.16;;;16.16;57.53
77263;BME280;66373;52.334;4.806;2024-01-07T03:01:53;101961.97;;;16.16;57.57
77263;BME280;66373;52.334;4.806;2024-01-07T03:04:20;101959.38;;;16.16;57.61
77263;BME280;66373;52.334;4.806;2024-01-07T03:06:48;101961.97;;;16.16;57.53
77263;BME280;66373;52.334;4.806;2024-01-07T03:09:16;101959.38;;;16.16;57.67
77263;BME280;66373;52.334;4.806;2024-01-07T03:11:43;101971.47;;;16.17;57.68
77263;BME280;66373;52.334;4.806;2024-01-07T03:14:10;101971.47;;;16.17;57.64
77263;BME280;66373;52.334;4.806;2024-01-07T03:16:39;101970.63;;;16.18;57.57
77263;BME280;66373;52.334;4.806;2024-01-07T03:19:06;101974.06;;;16.17;57.62
77263;BME280;66373;52.334;4.806;2024-01-07T03:21:33;101977.56;;;16.19;57.49
77263;BME280;66373;52.334;4.806;2024-01-07T03:24:01;101974.06;;;16.17;57.50
77263;BME280;66373;52.334;4.806;2024-01-07T03:26:30;101981.88;;;16.18;57.70
77263;BME280;66373;52.334;4.806;2024-01-07T03:28:58;101979.28;;;16.17;57.46
77263;BME280;66373;52.334;4.806;2024-01-07T03:31:28;101989.66;;;16.20;57.50
77263;BME280;66373;52.334;4.806;2024-01-07T03:33:57;101987.09;;;16.21;57.45
77263;BME280;66373;52.334;4.806;2024-01-07T03:36:24;101996.59;;;16.21;57.49
77263;BME280;66373;52.334;4.806;2024-01-07T03:38:51;101994.00;;;16.21;57.31
77263;BME280;66373;52.334;4.806;2024-01-07T03:41:20;101994.00;;;16.22;57.50
77263;BME280;66373;52.334;4.806;2024-01-07T03:43:48;101996.59;;;16.22;57.47
77263;BME280;66373;52.334;4.806;2024-01-07T03:46:16;101997.47;;;16.23;57.65
77263;BME280;66373;52.334;4.806;2024-01-07T03:48:43;102000.09;;;16.26;57.48
77263;BME280;66373;52.334;4.806;2024-01-07T03:51:12;102004.41;;;16.25;57.36
77263;BME280;66373;52.334;4.806;2024-01-07T03:53:39;102009.63;;;16.27;57.41
77263;BME280;66373;52.334;4.806;2024-01-07T03:56:07;102015.69;;;16.29;57.27
77263;BME280;66373;52.334;4.806;2024-01-07T03:58:34;102009.63;;;16.30;57.14
77263;BME280;66373;52.334;4.806;2024-01-07T04:01:01;102024.34;;;16.31;57.38
77263;BME280;66373;52.334;4.806;2024-01-07T04:03:28;102027.84;;;16.33;57.27
77263;BME280;66373;52.334;4.806;2024-01-07T04:05:56;102023.50;;;16.35;57.26
77263;BME280;66373;52.334;4.806;2024-01-07T04:08:24;102035.63;;;16.36;57.21
77263;BME280;66373;52.334;4.806;2024-01-07T04:10:52;102046.88;;;16.38;57.36
77263;BME280;66373;52.334;4.806;2024-01-07T04:13:20;102039.09;;;16.37;57.32
77263;BME280;66373;52.334;4.806;2024-01-07T04:15:47;102039.94;;;16.37;57.22
77263;BME280;66373;52.334;4.806;2024-01-07T04:18:14;102042.56;;;16.40;57.22
77263;BME280;66373;52.334;4.806;2024-01-07T04:20:41;102036.50;;;16.41;57.26
77263;BME280;66373;52.334;4.806;2024-01-07T04:23:09;102045.16;;;16.43;57.07
77263;BME280;66373;52.334;4.806;2024-01-07T04:25:37;102051.22;;;16.44;57.07
77263;BME280;66373;52.334;4.806;2024-01-07T04:28:06;102045.19;;;16.46;57.26
77263;BME280;66373;52.334;4.806;2024-01-07T04:30:33;102049.50;;;16.46;56.86
77263;BME280;66373;52.334;4.806;2024-01-07T04:33:00;102053.84;;;16.48;57.27
77263;BME280;66373;52.334;4.806;2024-01-07T04:35:28;102053.00;;;16.48;56.87
77263;BME280;66373;52.334;4.806;2024-01-07T04:37:55;102049.53;;;16.49;57.11
77263;BME280;66373;52.334;4.806;2024-01-07T04:40:22;102060.78;;;16.49;57.00
77263;BME280;66373;52.334;4.806;2024-01-07T04:42:51;102056.47;;;16.51;57.09
77263;BME280;66373;52.334;4.806;2024-01-07T04:45:18;102066.00;;;16.52;57.13
77263;BME280;66373;52.334;4.806;2024-01-07T04:47:45;102062.53;;;16.53;56.76
77263;BME280;66373;52.334;4.806;2024-01-07T04:50:12;102076.41;;;16.54;56.95
77263;BME280;66373;52.334;4.806;2024-01-07T04:52:45;102059.94;;;16.50;57.06
77263;BME280;66373;52.334;4.806;2024-01-07T04:55:12;102072.06;;;16.51;57.03
77263;BME280;66373;52.334;4.806;2024-01-07T04:57:38;102066.03;;;16.55;57.08
77263;BME280;66373;52.334;4.806;2024-01-07T05:00:08;102071.22;;;16.58;56.99
77263;BME280;66373;52.334;4.806;2024-01-07T05:02:35;102071.22;;;16.58;56.71
77263;BME280;66373;52.334;4.806;2024-01-07T05:05:03;102078.16;;;16.59;56.81
77263;BME280;66373;52.334;4.806;2024-01-07T05:07:31;102095.50;;;16.63;56.78
77263;BME280;66373;52.334;4.806;2024-01-07T05:09:58;102083.38;;;16.62;56.90
77263;BME280;66373;52.334;4.806;2024-01-07T05:12:25;102086.84;;;16.65;56.67
77263;BME280;66373;52.334;4.806;2024-01-07T05:14:52;102097.19;;;16.63;56.68
77263;BME280;66373;52.334;4.806;2024-01-07T05:17:21;102098.97;;;16.62;56.83
77263;BME280;66373;52.334;4.806;2024-01-07T05:19:48;102097.25;;;16.65;56.89
77263;BME280;66373;52.334;4.806;2024-01-07T05:22:15;102112.84;;;16.65;56.76
77263;BME280;66373;52.334;4.806;2024-01-07T05:24:43;102114.56;;;16.66;56.69
77263;BME280;66373;52.334;4.806;2024-01-07T05:27:10;102113.72;;;16.67;56.42
77263;BME280;66373;52.334;4.806;2024-01-07T05:29:37;102115.44;;;16.66;56.55
77263;BME280;66373;52.334;4.806;2024-01-07T05:32:05;102119.78;;;16.67;56.52
77263;BME280;66373;52.334;4.806;2024-01-07T05:34:34;102118.06;;;16.69;56.54
77263;BME280;66373;52.334;4.806;2024-01-07T05:37:01;102117.16;;;16.66;56.68
77263;BME280;66373;52.334;4.806;2024-01-07T05:39:28;102127.59;;;16.70;56.60
77263;BME280;66373;52.334;4.806;2024-01-07T05:41:55;102125.84;;;16.66;56.66
77263;BME280;66373;52.334;4.806;2024-01-07T05:44:23;102149.25;;;16.71;56.63
77263;BME280;66373;52.334;4.806;2024-01-07T05:46:50;102134.53;;;16.70;56.53
77263;BME280;66373;52.334;4.806;2024-01-07T05:49:17;102141.44;;;16.71;56.48
77263;BME280;66373;52.334;4.806;2024-01-07T05:51:45;102146.66;;;16.71;56.40
77263;BME280;66373;52.334;4.806;2024-01-07T05:54:13;102147.50;;;16.70;56.49
77263;BME280;66373;52.334;4.806;2024-01-07T05:56:40;102151.81;;;16.68;56.45
77263;BME280;66373;52.334;4.806;2024-01-07T05:59:08;102155.31;;;16.70;56.51
77263;BME280;66373;52.334;4.806;2024-01-07T06:01:35;102161.34;;;16.69;56.23
77263;BME280;66373;52.334;4.806;2024-01-07T06:04:03;102153.56;;;16.69;56.43
77263;BME280;66373;52.334;4.806;2024-01-07T06:06:30;102152.69;;;16.67;56.36
77263;BME280;66373;52.334;4.806;2024-01-07T06:08:58;102164.84;;;16.71;56.50
77263;BME280;66373;52.334;4.806;2024-01-07T06:11:27;102170.03;;;16.71;56.32
77263;BME280;66373;52.334;4.806;2024-01-07T06:13:54;102161.34;;;16.69;56.09
77263;BME280;66373;52.334;4.806;2024-01-07T06:16:21;102170.03;;;16.71;56.23
77263;BME280;66373;52.334;4.806;2024-01-07T06:18:49;102181.28;;;16.71;56.32
77263;BME280;66373;52.334;4.806;2024-01-07T06:21:16;102176.97;;;16.72;56.03
77263;BME280;66373;52.334;4.806;2024-01-07T06:23:43;102185.66;;;16.74;56.24
77263;BME280;66373;52.334;4.806;2024-01-07T06:26:12;102178.69;;;16.70;56.20
77263;BME280;66373;52.334;4.806;2024-01-07T06:28:39;102178.69;;;16.70;56.43
77263;BME280;66373;52.334;4.806;2024-01-07T06:31:06;102195.16;;;16.73;56.18
77263;BME280;66373;52.334;4.806;2024-01-07T06:33:33;102195.13;;;16.69;56.15
77263;BME280;66373;52.334;4.806;2024-01-07T06:36:01;102198.63;;;16.71;56.13
77263;BME280;66373;52.334;4.806;2024-01-07T06:38:28;102206.44;;;16.74;55.85
77263;BME280;66373;52.334;4.806;2024-01-07T06:40:55;102206.41;;;16.71;55.80
77263;BME280;66373;52.334;4.806;2024-01-07T06:43:28;102218.53;;;16.72;56.03
77263;BME280;66373;52.334;4.806;2024-01-07T06:45:55;102220.28;;;16.71;55.92
77263;BME280;66373;52.334;4.806;2024-01-07T06:48:22;102226.34;;;16.73;55.84
77263;BME280;66373;52.334;4.806;2024-01-07T06:50:49;102219.41;;;16.71;55.96
77263;BME280;66373;52.334;4.806;2024-01-07T06:53:17;102228.94;;;16.72;55.76
77263;BME280;66373;52.334;4.806;2024-01-07T06:55:44;102229.78;;;16.71;55.73
77263;BME280;66373;52.334;4.806;2024-01-07T06:58:11;102239.31;;;16.72;55.89
77263;BME280;66373;52.334;4.806;2024-01-07T07:00:40;102238.47;;;16.71;55.62
77263;BME280;66373;52.334;4.806;2024-01-07T07:03:08;102244.53;;;16.72;55.91
77263;BME280;66373;52.334;4.806;2024-01-07T07:05:36;102242.75;;;16.68;55.85
77263;BME280;66373;52.334;4.806;2024-01-07T07:08:04;102246.25;;;16.70;55.77
77263;BME280;66373;52.334;4.806;2024-01-07T07:10:31;102254.91;;;16.72;55.42
77263;BME280;66373;52.334;4.806;2024-01-07T07:12:58;102254.91;;;16.70;55.64
77263;BME280;66373;52.334;4.806;2024-01-07T07:15:26;102257.50;;;16.70;55.79
77263;BME280;66373;52.334;4.806;2024-01-07T07:17:55;102260.09;;;16.69;55.10
77263;BME280;66373;52.334;4.806;2024-01-07T07:20:23;102261.81;;;16.70;55.67
77263;BME280;66373;52.334;4.806;2024-01-07T07:22:50;102265.28;;;16.69;55.45
77263;BME280;66373;52.334;4.806;2024-01-07T07:25:17;102283.50;;;16.70;55.74
77263;BME280;66373;52.334;4.806;2024-01-07T07:27:44;102275.69;;;16.69;55.60
77263;BME280;66373;52.334;4.806;2024-01-07T07:30:12;102274.78;;;16.65;55.25
77263;BME280;66373;52.334;4.806;2024-01-07T07:32:39;102288.66;;;16.67;55.71
77263;BME280;66373;52.334;4.806;2024-01-07T07:35:10;102282.59;;;16.67;55.69
77263;BME280;66373;52.334;4.806;2024-01-07T07:37:37;102285.19;;;16.68;55.31
77263;BME280;66373;52.334;4.806;2024-01-07T07:40:05;102296.47;;;16.69;55.16
77263;BME280;66373;52.334;4.806;2024-01-07T07:42:33;102302.53;;;16.68;55.29
77263;BME280;66373;52.334;4.806;2024-01-07T07:45:00;102299.91;;;16.68;55.03
77263;BME280;66373;52.334;4.806;2024-01-07T07:47:28;102309.47;;;16.69;55.31
77263;BME280;66373;52.334;4.806;2024-01-07T07:49:56;102313.78;;;16.70;55.20
77263;BME280;66373;52.334;4.806;2024-01-07T07:52:24;102316.38;;;16.68;55.27
77263;BME280;66373;52.334;4.806;2024-01-07T07:54:52;102322.44;;;16.69;55.05
77263;BME280;66373;52.334;4.806;2024-01-07T07:57:20;102324.16;;;16.67;55.18
77263;BME280;66373;52.334;4.806;2024-01-07T07:59:48;102310.28;;;16.65;55.32
77263;BME280;66373;52.334;4.806;2024-01-07T08:02:15;102333.69;;;16.68;55.42
77263;BME280;66373;52.334;4.806;2024-01-07T08:04:43;102333.69;;;16.66;55.08
77263;BME280;66373;52.334;4.806;2024-01-07T08:07:10;102338.00;;;16.66;55.39
77263;BME280;66373;52.334;4.806;2024-01-07T08:09:39;102337.13;;;16.65;55.08
77263;BME280;66373;52.334;4.806;2024-01-07T08:12:06;102338.88;;;16.65;55.34
77263;BME280;66373;52.334;4.806;2024-01-07T08:14:34;102350.97;;;16.64;55.01
77263;BME280;66373;52.334;4.806;2024-01-07T08:17:01;102353.56;;;16.62;54.99
77263;BME280;66373;52.334;4.806;2024-01-07T08:19:30;102351.81;;;16.61;55.41
77263;BME280;66373;52.334;4.806;2024-01-07T08:21:58;102362.22;;;16.61;55.40
77263;BME280;66373;52.334;4.806;2024-01-07T08:24:25;102375.19;;;16.60;55.17
77263;BME280;66373;52.334;4.806;2024-01-07T08:26:54;102363.06;;;16.59;54.96
77263;BME280;66373;52.334;4.806;2024-01-07T08:29:22;102370.84;;;16.57;54.69
77263;BME280;66373;52.334;4.806;2024-01-07T08:31:49;102369.97;;;16.58;54.92
77263;BME280;66373;52.334;4.806;2024-01-07T08:34:16;102374.28;;;16.56;54.80
77263;BME280;66373;52.334;4.806;2024-01-07T08:36:43;102380.34;;;16.57;54.79
77263;BME280;66373;52.334;4.806;2024-01-07T08:39:10;102382.91;;;16.52;54.89
77263;BME280;66373;52.334;4.806;2024-01-07T08:41:38;102393.31;;;16.55;54.75
77263;BME280;66373;52.334;4.806;2024-01-07T08:44:07;102395.06;;;16.56;54.96
77263;BME280;66373;52.334;4.806;2024-01-07T08:46:35;102396.78;;;16.54;54.91
77263;BME280;66373;52.334;4.806;2024-01-07T08:49:02;102398.50;;;16.52;54.84
77263;BME280;66373;52.334;4.806;2024-01-07T08:51:29;102406.28;;;16.54;54.70
77263;BME280;66373;52.334;4.806;2024-01-07T08:53:57;102408.03;;;16.53;55.02
77263;BME280;66373;52.334;4.806;2024-01-07T08:56:24;102410.63;;;16.53;54.57
77263;BME280;66373;52.334;4.806;2024-01-07T08:58:51;102418.41;;;16.52;54.81
77263;BME280;66373;52.334;4.806;2024-01-07T09:01:20;102421.00;;;16.53;54.81
77263;BME280;66373;52.334;4.806;2024-01-07T09:03:47;102424.47;;;16.52;54.66
77263;BME280;66373;52.334;4.806;2024-01-07T09:06:14;102422.72;;;16.51;54.71
77263;BME280;66373;52.334;4.806;2024-01-07T09:08:41;102427.91;;;16.51;54.62
77263;BME280;66373;52.334;4.806;2024-01-07T09:11:09;102419.22;;;16.49;54.44
77263;BME280;66373;52.334;4.806;2024-01-07T09:13:38;102441.75;;;16.50;54.58
77263;BME280;66373;52.334;4.806;2024-01-07T09:16:05;102440.00;;;16.49;54.58
77263;BME280;66373;52.334;4.806;2024-01-07T09:18:36;102447.81;;;16.51;54.44
77263;BME280;66373;52.334;4.806;2024-01-07T09:21:04;102450.41;;;16.49;54.55
77263;BME280;66373;52.334;4.806;2024-01-07T09:23:31;102440.81;;;16.44;54.68
77263;BME280;66373;52.334;4.806;2024-01-07T09:26:02;102450.38;;;16.46;54.08
77263;BME280;66373;52.334;4.806;2024-01-07T09:28:29;102457.31;;;16.47;54.45
77263;BME280;66373;52.334;4.806;2024-01-07T09:30:56;102461.63;;;16.47;54.56
77263;BME280;66373;52.334;4.806;2024-01-07T09:33:23;102465.94;;;16.46;54.47
77263;BME280;66373;52.334;4.806;2024-01-07T09:35:52;102472.00;;;16.45;54.32
77263;BME280;66373;52.334;4.806;2024-01-07T09:38:19;102484.97;;;16.45;54.49
77263;BME280;66373;52.334;4.806;2024-01-07T09:40:47;102488.44;;;16.44;54.37
77263;BME280;66373;52.334;4.806;2024-01-07T09:43:14;102486.69;;;16.43;54.28
77263;BME280;66373;52.334;4.806;2024-01-07T09:45:42;102489.28;;;16.43;54.31
77263;BME280;66373;52.334;4.806;2024-01-07T09:48:12;102493.59;;;16.43;54.30
77263;BME280;66373;52.334;4.806;2024-01-07T09:50:40;102500.53;;;16.42;54.20
77263;BME280;66373;52.334;4.806;2024-01-07T09:53:13;102483.13;;;16.32;54.02
77263;BME280;66373;52.334;4.806;2024-01-07T09:55:47;102497.94;;;16.42;54.08
77263;BME280;66373;52.334;4.806;2024-01-07T09:58:19;102507.44;;;16.40;54.08
77263;BME280;66373;52.334;4.806;2024-01-07T10:00:46;102510.88;;;16.39;54.17
77263;BME280;66373;52.334;4.806;2024-01-07T10:03:14;102517.81;;;16.40;53.95
77263;BME280;66373;52.334;4.806;2024-01-07T10:05:41;102510.88;;;16.39;53.95
77263;BME280;66373;52.334;4.806;2024-01-07T10:08:09;102516.06;;;16.39;54.01
77263;BME280;66373;52.334;4.806;2024-01-07T10:10:37;102514.31;;;16.38;53.72
77263;BME280;66373;52.334;4.806;2024-01-07T10:13:06;102514.31;;;16.38;53.82
77263;BME280;66373;52.334;4.806;2024-01-07T10:15:34;102516.91;;;16.35;53.74
77263;BME280;66373;52.334;4.806;2024-01-07T10:18:07;102514.31;;;16.35;53.81
77263;BME280;66373;52.334;4.806;2024-01-07T10:20:35;102511.75;;;16.37;53.80
77263;BME280;66373;52.334;4.806;2024-01-07T10:23:02;102520.38;;;16.36;53.61
77263;BME280;66373;52.334;4.806;2024-01-07T10:25:32;102523.84;;;16.38;53.86
77263;BME280;66373;52.334;4.806;2024-01-07T10:27:59;102529.91;;;16.35;53.71
77263;BME280;66373;52.334;4.806;2024-01-07T10:30:27;102528.16;;;16.37;53.73
77263;BME280;66373;52.334;4.806;2024-01-07T10:32:56;102535.13;;;16.37;53.67
77263;BME280;66373;52.334;4.806;2024-01-07T10:35:28;102536.84;;;16.36;53.74
77263;BME280;66373;52.334;4.806;2024-01-07T10:37:56;102537.72;;;16.37;53.60
77263;BME280;66373;52.334;4.806;2024-01-07T10:40:23;102530.78;;;16.36;53.68
77263;BME280;66373;52.334;4.806;2024-01-07T10:42:54;102536.84;;;16.36;53.71
77263;BME280;66373;52.334;4.806;2024-01-07T10:45:22;102534.19;;;16.33;53.58
77263;BME280;66373;52.334;4.806;2024-01-07T10:47:54;102512.44;;;16.25;53.30
77263;BME280;66373;52.334;4.806;2024-01-07T10:50:22;102542.91;;;16.37;53.62
77263;BME280;66373;52.334;4.806;2024-01-07T10:52:50;102543.75;;;16.37;53.86
77263;BME280;66373;52.334;4.806;2024-01-07T10:55:18;102537.69;;;16.35;53.60
77263;BME280;66373;52.334;4.806;2024-01-07T10:57:47;102535.91;;;16.31;53.75
77263;BME280;66373;52.334;4.806;2024-01-07T11:00:17;102542.00;;;16.35;53.62
77263;BME280;66373;52.334;4.806;2024-01-07T11:02:54;102551.53;;;16.34;53.66
77263;BME280;66373;52.334;4.806;2024-01-07T11:05:29;102550.69;;;16.35;53.35
77263;BME280;66373;52.334;4.806;2024-01-07T11:08:03;102547.22;;;16.35;53.68
77263;BME280;66373;52.334;4.806;2024-01-07T11:10:37;102550.69;;;16.35;53.67
77263;BME280;66373;52.334;4.806;2024-01-07T11:13:05;102555.88;;;16.35;53.57
77263;BME280;66373;52.334;4.806;2024-01-07T11:16:01;102556.72;;;16.34;53.41
77263;BME280;66373;52.334;4.806;2024-01-07T11:18:30;102554.97;;;16.33;53.42
77263;BME280;66373;52.334;4.806;2024-01-07T11:21:00;102563.66;;;16.35;53.33
77263;BME280;66373;52.334;4.806;2024-01-07T11:23:30;102563.63;;;16.34;53.27
77263;BME280;66373;52.334;4.806;2024-01-07T11:25:59;102565.38;;;16.35;53.21
77263;BME280;66373;52.334;4.806;2024-01-07T11:28:45;102564.50;;;16.34;53.24
77263;BME280;66373;52.334;4.806;2024-01-07T11:31:16;102558.28;;;16.23;53.20
77263;BME280;66373;52.334;4.806;2024-01-07T11:33:44;102565.34;;;16.32;53.23
77263;BME280;66373;52.334;4.806;2024-01-07T11:36:12;102565.38;;;16.33;53.17
77263;BME280;66373;52.334;4.806;2024-01-07T11:38:43;102572.28;;;16.33;53.24
77263;BME280;66373;52.334;4.806;2024-01-07T11:41:11;102578.34;;;16.33;52.88
77263;BME280;66373;52.334;4.806;2024-01-07T11:43:52;102563.63;;;16.32;52.95
77263;BME280;66373;52.334;4.806;2024-01-07T11:46:22;102568.75;;;16.29;53.09
77263;BME280;66373;52.334;4.806;2024-01-07T11:48:52;102566.22;;;16.32;52.93
77263;BME280;66373;52.334;4.806;2024-01-07T11:51:19;102571.41;;;16.32;52.97
77263;BME280;66373;52.334;4.806;2024-01-07T11:53:47;102565.34;;;16.32;52.70
77263;BME280;66373;52.334;4.806;2024-01-07T11:56:14;102575.72;;;16.32;52.86
77263;BME280;66373;52.334;4.806;2024-01-07T11:58:41;102592.19;;;16.32;52.96
77263;BME280;66373;52.334;4.806;2024-01-07T12:01:08;102580.91;;;16.30;52.83
77263;BME280;66373;52.334;4.806;2024-01-07T12:03:37;102579.19;;;16.32;52.94
77263;BME280;66373;52.334;4.806;2024-01-07T12:06:04;102577.44;;;16.31;53.03
77263;BME280;66373;52.334;4.806;2024-01-07T12:08:32;102587.84;;;16.31;52.93
77263;BME280;66373;52.334;4.806;2024-01-07T12:10:59;102579.16;;;16.29;53.09
77263;BME280;66373;52.334;4.806;2024-01-07T12:13:27;102581.75;;;16.29;52.99
77263;BME280;66373;52.334;4.806;2024-01-07T12:15:54;102592.13;;;16.29;52.99
77263;BME280;66373;52.334;4.806;2024-01-07T12:18:22;102592.09;;;16.26;53.04
77263;BME280;66373;52.334;4.806;2024-01-07T12:20:57;102590.38;;;16.28;53.06
77263;BME280;66373;52.334;4.806;2024-01-07T12:23:25;102586.94;;;16.29;53.38
77263;BME280;66373;52.334;4.806;2024-01-07T12:25:52;102591.28;;;16.30;53.46
77263;BME280;66373;52.334;4.806;2024-01-07T12:28:20;102595.59;;;16.28;53.57
77263;BME280;66373;52.334;4.806;2024-01-07T12:30:48;102592.13;;;16.29;53.47
77263;BME280;66373;52.334;4.806;2024-01-07T12:33:17;102592.13;;;16.29;53.50
77263;BME280;66373;52.334;4.806;2024-01-07T12:35:45;102595.59;;;16.28;53.47
77263;BME280;66373;52.334;4.806;2024-01-07T12:38:14;102589.50;;;16.27;53.34
77263;BME280;66373;52.334;4.806;2024-01-07T12:40:41;102587.81;;;16.29;53.37
77263;BME280;66373;52.334;4.806;2024-01-07T12:43:09;102599.94;;;16.31;53.36
77263;BME280;66373;52.334;4.806;2024-01-07T12:45:36;102599.97;;;16.32;53.16
77263;BME280;66373;52.334;4.806;2024-01-07T12:48:03;102587.00;;;16.32;53.14
77263;BME280;66373;52.334;4.806;2024-01-07T12:50:30;102599.13;;;16.33;53.27
77263;BME280;66373;52.334;4.806;2024-01-07T12:52:58;102593.97;;;16.36;52.96
77263;BME280;66373;52.334;4.806;2024-01-07T12:55:27;102598.31;;;16.39;53.16